sensor_id;sensor_type;location;lat;lon;timestamp;P1;durP1;ratioP1;P2;durP2;ratioP2
25175;SDS011;13135;55.166;61.286;2023-08-12T00:00:08;7.10;;;5.90;;
25175;SDS011;13135;55.166;61.286;2023-08-12T00:02:52;9.03;;;6.40;;
25175;SDS011;13135;55.166;61.286;2023-08-12T00:05:37;9.20;;;6.60;;
25175;SDS011;13135;55.166;61.286;2023-08-12T00:08:22;6.27;;;5.67;;
25175;SDS011;13135;55.166;61.286;2023-08-12T00:11:07;8.00;;;6.37;;
25175;SDS011;13135;55.166;61.286;2023-08-12T00:13:51;7.63;;;5.97;;
25175;SDS011;13135;55.166;61.286;2023-08-12T00:16:36;6.27;;;5.50;;
25175;SDS011;13135;55.166;61.286;2023-08-12T00:19:21;8.87;;;5.40;;
25175;SDS011;13135;55.166;61.286;2023-08-12T00:22:05;9.10;;;6.07;;
25175;SDS011;13135;55.166;61.286;2023-08-12T00:24:52;6.60;;;5.87;;
25175;SDS011;13135;55.166;61.286;2023-08-12T00:27:35;9.33;;;5.93;;
25175;SDS011;13135;55.166;61.286;2023-08-12T00:30:20;11.20;;;6.17;;
25175;SDS011;13135;55.166;61.286;2023-08-12T00:33:02;8.47;;;6.17;;
25175;SDS011;13135;55.166;61.286;2023-08-12T00:35:47;7.33;;;5.93;;
25175;SDS011;13135;55.166;61.286;2023-08-12T00:38:29;6.97;;;5.67;;
25175;SDS011;13135;55.166;61.286;2023-08-12T00:41:13;7.17;;;5.33;;
25175;SDS011;13135;55.166;61.286;2023-08-12T00:43:57;7.30;;;5.83;;
25175;SDS011;13135;55.166;61.286;2023-08-12T00:46:42;10.70;;;5.80;;
25175;SDS011;13135;55.166;61.286;2023-08-12T00:49:27;7.30;;;5.80;;
25175;SDS011;13135;55.166;61.286;2023-08-12T00:52:12;7.87;;;5.90;;
25175;SDS011;13135;55.166;61.286;2023-08-12T00:54:58;8.90;;;6.30;;
25175;SDS011;13135;55.166;61.286;2023-08-12T00:57:43;7.43;;;5.87;;
25175;SDS011;13135;55.166;61.286;2023-08-12T01:00:33;8.83;;;6.00;;
25175;SDS011;13135;55.166;61.286;2023-08-12T01:03:18;7.37;;;6.10;;
25175;SDS011;13135;55.166;61.286;2023-08-12T01:06:03;8.47;;;5.70;;
25175;SDS011;13135;55.166;61.286;2023-08-12T01:08:48;8.30;;;6.07;;
25175;SDS011;13135;55.166;61.286;2023-08-12T01:11:35;8.10;;;5.47;;
25175;SDS011;13135;55.166;61.286;2023-08-12T01:14:23;7.10;;;5.30;;
25175;SDS011;13135;55.166;61.286;2023-08-12T01:17:07;7.30;;;5.50;;
25175;SDS011;13135;55.166;61.286;2023-08-12T01:19:52;7.97;;;5.33;;
25175;SDS011;13135;55.166;61.286;2023-08-12T01:22:37;7.20;;;5.43;;
25175;SDS011;13135;55.166;61.286;2023-08-12T01:25:21;7.23;;;5.37;;
25175;SDS011;13135;55.166;61.286;2023-08-12T01:28:06;8.47;;;5.07;;
25175;SDS011;13135;55.166;61.286;2023-08-12T01:30:54;7.80;;;5.43;;
25175;SDS011;13135;55.166;61.286;2023-08-12T01:33:39;7.23;;;5.17;;
25175;SDS011;13135;55.166;61.286;2023-08-12T01:36:24;7.67;;;5.20;;
25175;SDS011;13135;55.166;61.286;2023-08-12T01:39:08;5.97;;;4.87;;
25175;SDS011;13135;55.166;61.286;2023-08-12T01:41:53;7.27;;;5.27;;
25175;SDS011;13135;55.166;61.286;2023-08-12T01:44:38;6.53;;;5.10;;
25175;SDS011;13135;55.166;61.286;2023-08-12T01:47:19;6.43;;;4.87;;
25175;SDS011;13135;55.166;61.286;2023-08-12T01:50:03;8.57;;;5.07;;
25175;SDS011;13135;55.166;61.286;2023-08-12T01:52:49;5.20;;;4.40;;
25175;SDS011;13135;55.166;61.286;2023-08-12T01:55:34;6.17;;;4.50;;
25175;SDS011;13135;55.166;61.286;2023-08-12T01:58:19;5.47;;;4.53;;
25175;SDS011;13135;55.166;61.286;2023-08-12T02:01:04;5.70;;;4.70;;
25175;SDS011;13135;55.166;61.286;2023-08-12T02:03:48;7.13;;;4.90;;
25175;SDS011;13135;55.166;61.286;2023-08-12T02:06:33;5.80;;;4.47;;
25175;SDS011;13135;55.166;61.286;2023-08-12T02:09:18;8.23;;;4.80;;
25175;SDS011;13135;55.166;61.286;2023-08-12T02:12:03;5.50;;;4.63;;
25175;SDS011;13135;55.166;61.286;2023-08-12T02:14:49;5.60;;;4.60;;
25175;SDS011;13135;55.166;61.286;2023-08-12T02:17:34;5.47;;;4.30;;
25175;SDS011;13135;55.166;61.286;2023-08-12T02:20:18;7.60;;;4.40;;
25175;SDS011;13135;55.166;61.286;2023-08-12T02:23:02;5.47;;;4.67;;
25175;SDS011;13135;55.166;61.286;2023-08-12T02:25:47;5.60;;;4.50;;
25175;SDS011;13135;55.166;61.286;2023-08-12T02:28:28;4.97;;;4.30;;
25175;SDS011;13135;55.166;61.286;2023-08-12T02:31:14;5.30;;;4.20;;
25175;SDS011;13135;55.166;61.286;2023-08-12T02:33:58;5.03;;;4.30;;
25175;SDS011;13135;55.166;61.286;2023-08-12T02:36:41;5.67;;;4.03;;
25175;SDS011;13135;55.166;61.286;2023-08-12T02:39:28;7.40;;;4.77;;
25175;SDS011;13135;55.166;61.286;2023-08-12T02:42:13;6.30;;;4.30;;
25175;SDS011;13135;55.166;61.286;2023-08-12T02:44:56;5.30;;;4.03;;
25175;SDS011;13135;55.166;61.286;2023-08-12T02:47:41;5.97;;;4.10;;
25175;SDS011;13135;55.166;61.286;2023-08-12T02:50:26;6.53;;;4.20;;
25175;SDS011;13135;55.166;61.286;2023-08-12T02:53:11;6.43;;;4.20;;
25175;SDS011;13135;55.166;61.286;2023-08-12T02:55:56;6.57;;;4.10;;
25175;SDS011;13135;55.166;61.286;2023-08-12T02:58:42;8.17;;;3.83;;
25175;SDS011;13135;55.166;61.286;2023-08-12T03:01:29;5.37;;;4.10;;
25175;SDS011;13135;55.166;61.286;2023-08-12T03:04:14;6.57;;;3.93;;
25175;SDS011;13135;55.166;61.286;2023-08-12T03:06:58;5.37;;;3.93;;
25175;SDS011;13135;55.166;61.286;2023-08-12T03:09:41;5.20;;;3.83;;
25175;SDS011;13135;55.166;61.286;2023-08-12T03:12:27;4.07;;;3.63;;
25175;SDS011;13135;55.166;61.286;2023-08-12T03:15:12;4.83;;;3.43;;
25175;SDS011;13135;55.166;61.286;2023-08-12T03:17:55;4.60;;;3.47;;
25175;SDS011;13135;55.166;61.286;2023-08-12T03:20:39;4.23;;;3.80;;
25175;SDS011;13135;55.166;61.286;2023-08-12T03:23:26;5.50;;;3.40;;
25175;SDS011;13135;55.166;61.286;2023-08-12T03:26:08;4.73;;;3.40;;
25175;SDS011;13135;55.166;61.286;2023-08-12T03:28:54;4.80;;;3.50;;
25175;SDS011;13135;55.166;61.286;2023-08-12T03:31:39;4.90;;;3.50;;
25175;SDS011;13135;55.166;61.286;2023-08-12T03:34:27;5.40;;;3.30;;
25175;SDS011;13135;55.166;61.286;2023-08-12T03:37:11;5.00;;;3.30;;
25175;SDS011;13135;55.166;61.286;2023-08-12T03:39:56;4.87;;;3.30;;
25175;SDS011;13135;55.166;61.286;2023-08-12T03:42:39;3.50;;;3.00;;
25175;SDS011;13135;55.166;61.286;2023-08-12T03:45:26;4.37;;;2.70;;
25175;SDS011;13135;55.166;61.286;2023-08-12T03:48:08;5.03;;;3.07;;
25175;SDS011;13135;55.166;61.286;2023-08-12T03:50:53;3.10;;;2.43;;
25175;SDS011;13135;55.166;61.286;2023-08-12T03:53:38;4.67;;;2.70;;
25175;SDS011;13135;55.166;61.286;2023-08-12T03:56:22;2.50;;;2.30;;
25175;SDS011;13135;55.166;61.286;2023-08-12T03:59:08;3.23;;;2.60;;
25175;SDS011;13135;55.166;61.286;2023-08-12T04:01:57;3.10;;;2.60;;
25175;SDS011;13135;55.166;61.286;2023-08-12T04:04:43;3.67;;;2.70;;
25175;SDS011;13135;55.166;61.286;2023-08-12T04:07:27;4.57;;;2.50;;
25175;SDS011;13135;55.166;61.286;2023-08-12T04:10:12;6.60;;;3.00;;
25175;SDS011;13135;55.166;61.286;2023-08-12T04:12:56;4.67;;;2.50;;
25175;SDS011;13135;55.166;61.286;2023-08-12T04:15:41;4.47;;;2.70;;
25175;SDS011;13135;55.166;61.286;2023-08-12T04:18:30;5.37;;;2.40;;
25175;SDS011;13135;55.166;61.286;2023-08-12T04:21:17;2.63;;;2.03;;
25175;SDS011;13135;55.166;61.286;2023-08-12T04:24:04;2.40;;;2.13;;
25175;SDS011;13135;55.166;61.286;2023-08-12T04:26:50;4.97;;;2.10;;
25175;SDS011;13135;55.166;61.286;2023-08-12T04:29:37;4.90;;;2.10;;
25175;SDS011;13135;55.166;61.286;2023-08-12T04:32:22;3.53;;;2.40;;
25175;SDS011;13135;55.166;61.286;2023-08-12T04:35:07;2.20;;;1.83;;
25175;SDS011;13135;55.166;61.286;2023-08-12T04:37:55;3.80;;;2.13;;
25175;SDS011;13135;55.166;61.286;2023-08-12T04:40:42;4.23;;;1.97;;
25175;SDS011;13135;55.166;61.286;2023-08-12T04:43:28;5.40;;;2.13;;
25175;SDS011;13135;55.166;61.286;2023-08-12T04:46:14;3.73;;;1.90;;
25175;SDS011;13135;55.166;61.286;2023-08-12T04:48:58;4.70;;;2.10;;
25175;SDS011;13135;55.166;61.286;2023-08-12T04:51:42;2.53;;;1.90;;
25175;SDS011;13135;55.166;61.286;2023-08-12T04:54:27;3.50;;;2.00;;
25175;SDS011;13135;55.166;61.286;2023-08-12T04:57:12;3.13;;;2.03;;
25175;SDS011;13135;55.166;61.286;2023-08-12T04:59:57;4.00;;;2.10;;
25175;SDS011;13135;55.166;61.286;2023-08-12T05:02:42;3.60;;;1.90;;
25175;SDS011;13135;55.166;61.286;2023-08-12T05:05:27;3.80;;;2.20;;
25175;SDS011;13135;55.166;61.286;2023-08-12T05:08:11;2.40;;;1.70;;
25175;SDS011;13135;55.166;61.286;2023-08-12T05:10:57;3.10;;;1.90;;
25175;SDS011;13135;55.166;61.286;2023-08-12T05:13:41;2.40;;;2.00;;
25175;SDS011;13135;55.166;61.286;2023-08-12T05:16:28;3.87;;;1.90;;
25175;SDS011;13135;55.166;61.286;2023-08-12T05:19:13;2.37;;;1.90;;
25175;SDS011;13135;55.166;61.286;2023-08-12T05:21:58;2.13;;;1.70;;
25175;SDS011;13135;55.166;61.286;2023-08-12T05:24:42;2.27;;;2.03;;
25175;SDS011;13135;55.166;61.286;2023-08-12T05:27:29;2.47;;;1.90;;
25175;SDS011;13135;55.166;61.286;2023-08-12T05:30:14;4.03;;;1.80;;
25175;SDS011;13135;55.166;61.286;2023-08-12T05:32:59;2.67;;;1.67;;
25175;SDS011;13135;55.166;61.286;2023-08-12T05:35:47;4.73;;;2.20;;
25175;SDS011;13135;55.166;61.286;2023-08-12T05:38:30;3.97;;;1.83;;
25175;SDS011;13135;55.166;61.286;2023-08-12T05:41:13;4.70;;;2.03;;
25175;SDS011;13135;55.166;61.286;2023-08-12T05:43:58;2.40;;;2.00;;
25175;SDS011;13135;55.166;61.286;2023-08-12T05:46:45;3.03;;;2.00;;
25175;SDS011;13135;55.166;61.286;2023-08-12T05:49:30;2.73;;;1.90;;
25175;SDS011;13135;55.166;61.286;2023-08-12T05:52:17;2.30;;;1.70;;
25175;SDS011;13135;55.166;61.286;2023-08-12T05:55:01;2.53;;;1.63;;
25175;SDS011;13135;55.166;61.286;2023-08-12T05:57:45;1.93;;;1.53;;
25175;SDS011;13135;55.166;61.286;2023-08-12T06:00:29;2.10;;;1.70;;
25175;SDS011;13135;55.166;61.286;2023-08-12T06:03:16;1.90;;;1.70;;
25175;SDS011;13135;55.166;61.286;2023-08-12T06:06:01;2.30;;;1.60;;
25175;SDS011;13135;55.166;61.286;2023-08-12T06:08:49;3.17;;;1.90;;
25175;SDS011;13135;55.166;61.286;2023-08-12T06:11:33;3.03;;;1.80;;
25175;SDS011;13135;55.166;61.286;2023-08-12T06:14:18;2.43;;;1.90;;
25175;SDS011;13135;55.166;61.286;2023-08-12T06:17:02;3.20;;;1.70;;
25175;SDS011;13135;55.166;61.286;2023-08-12T06:19:46;2.33;;;1.43;;
25175;SDS011;13135;55.166;61.286;2023-08-12T06:22:31;2.23;;;1.83;;
25175;SDS011;13135;55.166;61.286;2023-08-12T06:25:16;2.47;;;1.80;;
25175;SDS011;13135;55.166;61.286;2023-08-12T06:28:00;2.10;;;1.90;;
25175;SDS011;13135;55.166;61.286;2023-08-12T06:30:45;2.33;;;1.53;;
25175;SDS011;13135;55.166;61.286;2023-08-12T06:33:30;2.80;;;1.90;;
25175;SDS011;13135;55.166;61.286;2023-08-12T06:36:15;1.83;;;1.60;;
25175;SDS011;13135;55.166;61.286;2023-08-12T06:38:59;2.47;;;1.80;;
25175;SDS011;13135;55.166;61.286;2023-08-12T06:41:46;5.47;;;2.00;;
25175;SDS011;13135;55.166;61.286;2023-08-12T06:44:31;3.40;;;1.90;;
25175;SDS011;13135;55.166;61.286;2023-08-12T06:47:15;1.70;;;1.60;;
25175;SDS011;13135;55.166;61.286;2023-08-12T06:50:00;3.37;;;1.70;;
25175;SDS011;13135;55.166;61.286;2023-08-12T06:52:46;2.37;;;1.80;;
25175;SDS011;13135;55.166;61.286;2023-08-12T06:55:31;5.63;;;1.87;;
25175;SDS011;13135;55.166;61.286;2023-08-12T06:58:16;3.83;;;1.90;;
25175;SDS011;13135;55.166;61.286;2023-08-12T07:01:01;3.77;;;1.73;;
25175;SDS011;13135;55.166;61.286;2023-08-12T07:03:47;2.40;;;1.60;;
25175;SDS011;13135;55.166;61.286;2023-08-12T07:06:32;2.77;;;1.50;;
25175;SDS011;13135;55.166;61.286;2023-08-12T07:09:17;5.30;;;1.30;;
25175;SDS011;13135;55.166;61.286;2023-08-12T07:12:00;2.10;;;1.30;;
25175;SDS011;13135;55.166;61.286;2023-08-12T07:14:45;3.77;;;1.47;;
25175;SDS011;13135;55.166;61.286;2023-08-12T07:17:30;4.80;;;1.60;;
25175;SDS011;13135;55.166;61.286;2023-08-12T07:20:17;1.43;;;1.20;;
25175;SDS011;13135;55.166;61.286;2023-08-12T07:23:03;2.10;;;1.40;;
25175;SDS011;13135;55.166;61.286;2023-08-12T07:25:48;1.90;;;1.50;;
25175;SDS011;13135;55.166;61.286;2023-08-12T07:28:33;2.13;;;1.50;;
25175;SDS011;13135;55.166;61.286;2023-08-12T07:31:17;2.40;;;1.30;;
25175;SDS011;13135;55.166;61.286;2023-08-12T07:34:01;3.73;;;1.50;;
25175;SDS011;13135;55.166;61.286;2023-08-12T07:36:47;2.10;;;1.50;;
25175;SDS011;13135;55.166;61.286;2023-08-12T07:39:32;4.23;;;1.70;;
25175;SDS011;13135;55.166;61.286;2023-08-12T07:42:17;1.50;;;1.30;;
25175;SDS011;13135;55.166;61.286;2023-08-12T07:45:01;1.80;;;1.60;;
25175;SDS011;13135;55.166;61.286;2023-08-12T07:47:46;1.97;;;1.60;;
25175;SDS011;13135;55.166;61.286;2023-08-12T07:50:31;3.43;;;1.63;;
25175;SDS011;13135;55.166;61.286;2023-08-12T07:53:16;2.10;;;1.53;;
25175;SDS011;13135;55.166;61.286;2023-08-12T07:56:03;3.43;;;1.80;;
25175;SDS011;13135;55.166;61.286;2023-08-12T07:58:49;1.90;;;1.73;;
25175;SDS011;13135;55.166;61.286;2023-08-12T08:01:33;3.80;;;2.10;;
25175;SDS011;13135;55.166;61.286;2023-08-12T08:04:17;2.37;;;1.80;;
25175;SDS011;13135;55.166;61.286;2023-08-12T08:07:02;2.23;;;1.83;;
25175;SDS011;13135;55.166;61.286;2023-08-12T08:09:47;4.03;;;2.30;;
25175;SDS011;13135;55.166;61.286;2023-08-12T08:12:32;4.78;;;2.47;;
25175;SDS011;13135;55.166;61.286;2023-08-12T08:15:20;5.80;;;2.63;;
25175;SDS011;13135;55.166;61.286;2023-08-12T08:18:09;4.40;;;2.50;;
25175;SDS011;13135;55.166;61.286;2023-08-12T08:20:53;5.05;;;2.53;;
25175;SDS011;13135;55.166;61.286;2023-08-12T08:23:37;4.75;;;2.35;;
25175;SDS011;13135;55.166;61.286;2023-08-12T08:26:22;4.03;;;2.50;;
25175;SDS011;13135;55.166;61.286;2023-08-12T08:29:06;2.85;;;2.45;;
25175;SDS011;13135;55.166;61.286;2023-08-12T08:31:51;4.93;;;2.58;;
25175;SDS011;13135;55.166;61.286;2023-08-12T08:34:35;3.08;;;2.40;;
25175;SDS011;13135;55.166;61.286;2023-08-12T08:37:22;3.35;;;2.40;;
25175;SDS011;13135;55.166;61.286;2023-08-12T08:40:07;5.07;;;2.50;;
25175;SDS011;13135;55.166;61.286;2023-08-12T08:42:53;3.85;;;2.37;;
25175;SDS011;13135;55.166;61.286;2023-08-12T08:45:38;4.12;;;2.72;;
25175;SDS011;13135;55.166;61.286;2023-08-12T08:48:23;4.57;;;2.47;;
25175;SDS011;13135;55.166;61.286;2023-08-12T08:51:08;5.30;;;2.60;;
25175;SDS011;13135;55.166;61.286;2023-08-12T08:53:53;4.90;;;2.70;;
25175;SDS011;13135;55.166;61.286;2023-08-12T08:56:39;4.75;;;2.42;;
25175;SDS011;13135;55.166;61.286;2023-08-12T08:59:24;3.20;;;2.60;;
25175;SDS011;13135;55.166;61.286;2023-08-12T09:02:13;3.87;;;2.45;;
25175;SDS011;13135;55.166;61.286;2023-08-12T09:05:02;3.40;;;2.42;;
25175;SDS011;13135;55.166;61.286;2023-08-12T09:07:47;3.35;;;2.40;;
25175;SDS011;13135;55.166;61.286;2023-08-12T09:10:32;6.90;;;2.60;;
25175;SDS011;13135;55.166;61.286;2023-08-12T09:13:17;4.40;;;2.70;;
25175;SDS011;13135;55.166;61.286;2023-08-12T09:16:01;5.12;;;2.47;;
25175;SDS011;13135;55.166;61.286;2023-08-12T09:18:46;3.95;;;2.42;;
25175;SDS011;13135;55.166;61.286;2023-08-12T09:21:31;3.60;;;2.60;;
25175;SDS011;13135;55.166;61.286;2023-08-12T09:24:16;3.75;;;2.40;;
25175;SDS011;13135;55.166;61.286;2023-08-12T09:27:03;4.30;;;2.35;;
25175;SDS011;13135;55.166;61.286;2023-08-12T09:29:48;4.15;;;2.35;;
25175;SDS011;13135;55.166;61.286;2023-08-12T09:32:35;4.20;;;2.30;;
25175;SDS011;13135;55.166;61.286;2023-08-12T09:35:22;2.60;;;2.22;;
25175;SDS011;13135;55.166;61.286;2023-08-12T09:38:07;4.65;;;2.40;;
25175;SDS011;13135;55.166;61.286;2023-08-12T09:40:52;2.85;;;2.20;;
25175;SDS011;13135;55.166;61.286;2023-08-12T09:43:40;4.35;;;2.47;;
25175;SDS011;13135;55.166;61.286;2023-08-12T09:46:26;2.80;;;2.35;;
25175;SDS011;13135;55.166;61.286;2023-08-12T09:49:11;3.47;;;2.42;;
25175;SDS011;13135;55.166;61.286;2023-08-12T09:52:02;3.40;;;2.25;;
25175;SDS011;13135;55.166;61.286;2023-08-12T09:54:47;2.95;;;2.10;;
25175;SDS011;13135;55.166;61.286;2023-08-12T09:57:32;2.30;;;2.10;;
25175;SDS011;13135;55.166;61.286;2023-08-12T10:00:20;4.90;;;2.33;;
25175;SDS011;13135;55.166;61.286;2023-08-12T10:03:04;4.40;;;2.35;;
25175;SDS011;13135;55.166;61.286;2023-08-12T10:05:49;4.35;;;2.35;;
25175;SDS011;13135;55.166;61.286;2023-08-12T10:08:34;3.17;;;1.98;;
25175;SDS011;13135;55.166;61.286;2023-08-12T10:11:19;6.20;;;2.50;;
25175;SDS011;13135;55.166;61.286;2023-08-12T10:14:04;2.60;;;2.10;;
25175;SDS011;13135;55.166;61.286;2023-08-12T10:16:49;2.50;;;1.83;;
25175;SDS011;13135;55.166;61.286;2023-08-12T10:19:29;2.67;;;1.83;;
25175;SDS011;13135;55.166;61.286;2023-08-12T10:22:14;2.08;;;1.80;;
25175;SDS011;13135;55.166;61.286;2023-08-12T10:24:59;2.62;;;1.92;;
25175;SDS011;13135;55.166;61.286;2023-08-12T10:27:44;2.83;;;2.00;;
25175;SDS011;13135;55.166;61.286;2023-08-12T10:30:29;2.67;;;1.90;;
25175;SDS011;13135;55.166;61.286;2023-08-12T10:33:14;2.67;;;1.98;;
25175;SDS011;13135;55.166;61.286;2023-08-12T10:36:01;2.55;;;1.80;;
25175;SDS011;13135;55.166;61.286;2023-08-12T10:38:46;2.85;;;2.17;;
25175;SDS011;13135;55.166;61.286;2023-08-12T10:41:32;4.47;;;2.12;;
25175;SDS011;13135;55.166;61.286;2023-08-12T10:44:19;2.05;;;1.90;;
25175;SDS011;13135;55.166;61.286;2023-08-12T10:47:07;2.42;;;1.90;;
25175;SDS011;13135;55.166;61.286;2023-08-12T10:53:22;4.10;;;1.80;;
25175;SDS011;13135;55.166;61.286;2023-08-12T10:56:05;2.35;;;1.60;;
25175;SDS011;13135;55.166;61.286;2023-08-12T10:58:50;2.87;;;1.90;;
25175;SDS011;13135;55.166;61.286;2023-08-12T11:01:35;2.30;;;1.87;;
25175;SDS011;13135;55.166;61.286;2023-08-12T11:04:20;5.47;;;2.05;;
25175;SDS011;13135;55.166;61.286;2023-08-12T11:09:59;1.90;;;1.65;;
25175;SDS011;13135;55.166;61.286;2023-08-12T11:12:48;2.15;;;1.90;;
25175;SDS011;13135;55.166;61.286;2023-08-12T11:15:43;1.75;;;1.60;;
25175;SDS011;13135;55.166;61.286;2023-08-12T11:18:29;3.95;;;1.90;;
25175;SDS011;13135;55.166;61.286;2023-08-12T11:21:16;3.00;;;1.75;;
25175;SDS011;13135;55.166;61.286;2023-08-12T11:24:01;2.72;;;1.90;;
25175;SDS011;13135;55.166;61.286;2023-08-12T11:26:46;3.90;;;1.83;;
25175;SDS011;13135;55.166;61.286;2023-08-12T11:29:33;2.10;;;1.90;;
25175;SDS011;13135;55.166;61.286;2023-08-12T11:32:18;2.78;;;2.08;;
25175;SDS011;13135;55.166;61.286;2023-08-12T11:35:03;3.20;;;2.20;;
25175;SDS011;13135;55.166;61.286;2023-08-12T11:37:50;2.22;;;1.87;;
25175;SDS011;13135;55.166;61.286;2023-08-12T11:40:35;4.18;;;2.00;;
25175;SDS011;13135;55.166;61.286;2023-08-12T11:43:21;3.15;;;2.10;;
25175;SDS011;13135;55.166;61.286;2023-08-12T11:46:05;2.67;;;1.90;;
25175;SDS011;13135;55.166;61.286;2023-08-12T11:48:50;2.50;;;1.90;;
25175;SDS011;13135;55.166;61.286;2023-08-12T11:51:34;5.47;;;2.30;;
25175;SDS011;13135;55.166;61.286;2023-08-12T11:54:18;2.75;;;2.25;;
25175;SDS011;13135;55.166;61.286;2023-08-12T11:57:05;2.35;;;1.90;;
25175;SDS011;13135;55.166;61.286;2023-08-12T11:59:52;2.03;;;1.83;;
25175;SDS011;13135;55.166;61.286;2023-08-12T12:02:41;2.28;;;1.70;;
25175;SDS011;13135;55.166;61.286;2023-08-12T12:05:31;4.12;;;1.50;;
25175;SDS011;13135;55.166;61.286;2023-08-12T12:08:16;3.35;;;1.80;;
25175;SDS011;13135;55.166;61.286;2023-08-12T12:11:07;3.83;;;1.77;;
25175;SDS011;13135;55.166;61.286;2023-08-12T12:13:54;4.05;;;2.00;;
25175;SDS011;13135;55.166;61.286;2023-08-12T12:16:40;3.92;;;1.87;;
25175;SDS011;13135;55.166;61.286;2023-08-12T12:19:26;3.10;;;1.98;;
25175;SDS011;13135;55.166;61.286;2023-08-12T12:22:08;1.77;;;1.60;;
25175;SDS011;13135;55.166;61.286;2023-08-12T12:24:52;3.25;;;1.90;;
25175;SDS011;13135;55.166;61.286;2023-08-12T12:30:59;2.55;;;1.52;;
25175;SDS011;13135;55.166;61.286;2023-08-12T12:33:46;3.15;;;2.00;;
25175;SDS011;13135;55.166;61.286;2023-08-12T12:36:35;4.03;;;1.77;;
25175;SDS011;13135;55.166;61.286;2023-08-12T12:39:20;3.22;;;1.80;;
25175;SDS011;13135;55.166;61.286;2023-08-12T12:42:07;1.80;;;1.70;;
25175;SDS011;13135;55.166;61.286;2023-08-12T12:44:51;2.30;;;2.00;;
25175;SDS011;13135;55.166;61.286;2023-08-12T12:47:36;2.10;;;1.85;;
25175;SDS011;13135;55.166;61.286;2023-08-12T12:50:21;2.17;;;1.75;;
25175;SDS011;13135;55.166;61.286;2023-08-12T12:53:06;5.72;;;1.80;;
25175;SDS011;13135;55.166;61.286;2023-08-12T12:55:52;6.70;;;2.35;;
25175;SDS011;13135;55.166;61.286;2023-08-12T12:58:36;2.08;;;1.60;;
25175;SDS011;13135;55.166;61.286;2023-08-12T13:01:20;4.28;;;1.83;;
25175;SDS011;13135;55.166;61.286;2023-08-12T13:04:05;4.62;;;1.80;;
25175;SDS011;13135;55.166;61.286;2023-08-12T13:06:50;1.95;;;1.67;;
25175;SDS011;13135;55.166;61.286;2023-08-12T13:09:34;2.47;;;2.00;;
25175;SDS011;13135;55.166;61.286;2023-08-12T13:12:20;3.05;;;1.80;;
25175;SDS011;13135;55.166;61.286;2023-08-12T13:15:04;1.90;;;1.70;;
25175;SDS011;13135;55.166;61.286;2023-08-12T13:17:52;2.83;;;1.80;;
25175;SDS011;13135;55.166;61.286;2023-08-12T13:20:36;2.40;;;1.70;;
25175;SDS011;13135;55.166;61.286;2023-08-12T13:23:23;3.80;;;2.17;;
25175;SDS011;13135;55.166;61.286;2023-08-12T13:26:10;2.33;;;1.75;;
25175;SDS011;13135;55.166;61.286;2023-08-12T13:28:56;2.92;;;2.00;;
25175;SDS011;13135;55.166;61.286;2023-08-12T13:31:43;2.33;;;1.98;;
25175;SDS011;13135;55.166;61.286;2023-08-12T13:34:28;3.00;;;2.05;;
25175;SDS011;13135;55.166;61.286;2023-08-12T13:37:12;3.30;;;2.00;;
25175;SDS011;13135;55.166;61.286;2023-08-12T13:39:56;2.55;;;2.20;;
25175;SDS011;13135;55.166;61.286;2023-08-12T13:42:42;2.22;;;1.80;;
25175;SDS011;13135;55.166;61.286;2023-08-12T13:45:29;3.40;;;2.20;;
25175;SDS011;13135;55.166;61.286;2023-08-12T13:48:14;3.37;;;2.08;;
25175;SDS011;13135;55.166;61.286;2023-08-12T13:51:01;2.80;;;2.03;;
25175;SDS011;13135;55.166;61.286;2023-08-12T13:53:48;2.37;;;2.17;;
25175;SDS011;13135;55.166;61.286;2023-08-12T13:56:32;3.62;;;2.22;;
25175;SDS011;13135;55.166;61.286;2023-08-12T13:59:17;4.25;;;2.40;;
25175;SDS011;13135;55.166;61.286;2023-08-12T14:02:01;2.62;;;2.30;;
25175;SDS011;13135;55.166;61.286;2023-08-12T14:04:46;6.28;;;2.03;;
25175;SDS011;13135;55.166;61.286;2023-08-12T14:07:31;2.58;;;2.00;;
25175;SDS011;13135;55.166;61.286;2023-08-12T14:10:18;3.15;;;2.40;;
25175;SDS011;13135;55.166;61.286;2023-08-12T14:13:05;3.95;;;2.12;;
25175;SDS011;13135;55.166;61.286;2023-08-12T14:15:53;3.67;;;2.33;;
25175;SDS011;13135;55.166;61.286;2023-08-12T14:18:42;2.40;;;2.20;;
25175;SDS011;13135;55.166;61.286;2023-08-12T14:21:29;3.12;;;2.12;;
25175;SDS011;13135;55.166;61.286;2023-08-12T14:24:14;4.87;;;2.10;;
25175;SDS011;13135;55.166;61.286;2023-08-12T14:27:01;4.82;;;2.28;;
25175;SDS011;13135;55.166;61.286;2023-08-12T14:29:48;5.62;;;2.30;;
25175;SDS011;13135;55.166;61.286;2023-08-12T14:32:33;5.55;;;1.83;;
25175;SDS011;13135;55.166;61.286;2023-08-12T14:35:18;2.25;;;1.85;;
25175;SDS011;13135;55.166;61.286;2023-08-12T14:38:01;2.85;;;1.98;;
25175;SDS011;13135;55.166;61.286;2023-08-12T14:40:47;3.45;;;1.75;;
25175;SDS011;13135;55.166;61.286;2023-08-12T14:43:30;2.62;;;2.08;;
25175;SDS011;13135;55.166;61.286;2023-08-12T14:46:15;3.75;;;2.00;;
25175;SDS011;13135;55.166;61.286;2023-08-12T14:49:00;2.95;;;2.08;;
25175;SDS011;13135;55.166;61.286;2023-08-12T14:51:46;4.25;;;2.00;;
25175;SDS011;13135;55.166;61.286;2023-08-12T14:54:31;3.12;;;1.90;;
25175;SDS011;13135;55.166;61.286;2023-08-12T14:57:11;3.75;;;1.92;;
25175;SDS011;13135;55.166;61.286;2023-08-12T14:59:55;3.45;;;2.17;;
25175;SDS011;13135;55.166;61.286;2023-08-12T15:02:40;2.65;;;1.80;;
25175;SDS011;13135;55.166;61.286;2023-08-12T15:05:21;3.35;;;1.92;;
25175;SDS011;13135;55.166;61.286;2023-08-12T15:08:08;2.20;;;1.90;;
25175;SDS011;13135;55.166;61.286;2023-08-12T15:10:53;4.00;;;2.10;;
25175;SDS011;13135;55.166;61.286;2023-08-12T15:13:38;4.57;;;2.83;;
25175;SDS011;13135;55.166;61.286;2023-08-12T15:16:23;5.97;;;2.42;;
25175;SDS011;13135;55.166;61.286;2023-08-12T15:19:10;5.93;;;2.28;;
25175;SDS011;13135;55.166;61.286;2023-08-12T15:21:55;4.35;;;2.37;;
25175;SDS011;13135;55.166;61.286;2023-08-12T15:24:40;3.05;;;2.35;;
25175;SDS011;13135;55.166;61.286;2023-08-12T15:27:24;4.07;;;2.30;;
25175;SDS011;13135;55.166;61.286;2023-08-12T15:30:10;5.10;;;2.83;;
25175;SDS011;13135;55.166;61.286;2023-08-12T15:32:55;3.22;;;2.53;;
25175;SDS011;13135;55.166;61.286;2023-08-12T15:35:39;5.32;;;2.45;;
25175;SDS011;13135;55.166;61.286;2023-08-12T15:38:24;3.15;;;2.12;;
25175;SDS011;13135;55.166;61.286;2023-08-12T17:53:24;6.43;;;3.05;;
25175;SDS011;13135;55.166;61.286;2023-08-12T17:56:11;12.18;;;3.05;;
25175;SDS011;13135;55.166;61.286;2023-08-12T17:58:52;9.00;;;3.08;;
25175;SDS011;13135;55.166;61.286;2023-08-12T18:01:35;7.37;;;2.83;;
25175;SDS011;13135;55.166;61.286;2023-08-12T18:04:19;5.23;;;2.80;;
25175;SDS011;13135;55.166;61.286;2023-08-12T18:07:06;9.20;;;3.10;;
25175;SDS011;13135;55.166;61.286;2023-08-12T18:09:52;7.40;;;2.70;;
25175;SDS011;13135;55.166;61.286;2023-08-12T18:12:37;4.70;;;2.60;;
25175;SDS011;13135;55.166;61.286;2023-08-12T18:15:24;6.13;;;2.23;;
25175;SDS011;13135;55.166;61.286;2023-08-12T18:18:11;6.60;;;2.43;;
25175;SDS011;13135;55.166;61.286;2023-08-12T18:20:55;4.93;;;2.33;;
25175;SDS011;13135;55.166;61.286;2023-08-12T18:23:38;6.43;;;2.70;;
25175;SDS011;13135;55.166;61.286;2023-08-12T18:26:23;3.93;;;2.10;;
25175;SDS011;13135;55.166;61.286;2023-08-12T18:29:08;5.10;;;2.40;;
25175;SDS011;13135;55.166;61.286;2023-08-12T18:31:54;5.47;;;2.30;;
25175;SDS011;13135;55.166;61.286;2023-08-12T18:34:39;7.47;;;2.77;;
25175;SDS011;13135;55.166;61.286;2023-08-12T18:37:22;6.23;;;2.23;;
25175;SDS011;13135;55.166;61.286;2023-08-12T18:40:09;4.00;;;2.27;;